createdAt,value
2022-09-03T00:00:03.649Z,17.75
2022-09-03T00:02:41.218Z,17.75
2022-09-03T00:05:16.861Z,17.75
2022-09-03T00:07:55.797Z,17.71
2022-09-03T00:10:34.589Z,17.71
2022-09-03T00:13:07.779Z,17.71
2022-09-03T00:15:39.608Z,17.68
2022-09-03T00:18:13.649Z,17.69
2022-09-03T00:20:47.445Z,17.66
2022-09-03T00:23:24.576Z,17.64
2022-09-03T00:26:01.800Z,17.61
2022-09-03T00:28:39.679Z,17.60
2022-09-03T00:31:18.510Z,17.55
2022-09-03T00:33:52.049Z,17.51
2022-09-03T00:36:27.921Z,17.49
2022-09-03T00:38:58.260Z,17.46
2022-09-03T00:41:40.407Z,17.41
2022-09-03T00:44:28.998Z,17.38
2022-09-03T00:47:09.519Z,17.34
2022-09-03T00:49:53.191Z,17.27
2022-09-03T00:52:40.616Z,17.25
2022-09-03T00:55:20.024Z,17.24
2022-09-03T00:58:06.305Z,17.20
2022-09-03T01:00:36.920Z,17.21
2022-09-03T01:03:12.224Z,17.20
2022-09-03T01:06:09.329Z,17.21
2022-09-03T01:09:02.698Z,17.19
2022-09-03T01:11:40.266Z,17.14
2022-09-03T01:14:23.707Z,17.13
2022-09-03T01:17:03.089Z,17.12
2022-09-03T01:19:57.249Z,17.10
2022-09-03T01:23:12.170Z,17.11
2022-09-03T01:25:55.052Z,17.10
2022-09-03T01:28:40.700Z,17.12
2022-09-03T01:31:21.708Z,17.12
2022-09-03T01:33:59.254Z,17.10
2022-09-03T01:36:37.267Z,17.05
2022-09-03T01:39:09.822Z,17.02
2022-09-03T01:42:03.837Z,17.02
2022-09-03T01:44:52.827Z,16.94
2022-09-03T01:47:38.256Z,17.02
2022-09-03T01:50:19.508Z,16.99
2022-09-03T01:52:57.811Z,17.02
2022-09-03T01:55:35.662Z,17.03
2022-09-03T01:58:14.232Z,17.06
2022-09-03T02:00:52.651Z,17.07
2022-09-03T02:03:23.662Z,17.07
2022-09-03T02:05:54.482Z,17.05
2022-09-03T02:08:25.413Z,17.08
2022-09-03T02:11:02.026Z,17.07
2022-09-03T02:13:35.416Z,17.05
2022-09-03T02:16:15.061Z,17.04
2022-09-03T02:18:49.781Z,17.03
2022-09-03T02:21:23.011Z,17.03
2022-09-03T02:23:54.120Z,16.86
2022-09-03T02:26:27.377Z,16.94
2022-09-03T02:28:58.821Z,16.94
2022-09-03T02:31:31.937Z,16.93
2022-09-03T02:34:02.915Z,16.93
2022-09-03T02:36:37.012Z,16.93
2022-09-03T02:39:09.946Z,16.89
2022-09-03T02:41:42.451Z,16.89
2022-09-03T02:44:20.168Z,16.86
2022-09-03T02:46:59.959Z,16.86
2022-09-03T02:49:30.453Z,16.86
2022-09-03T02:52:05.453Z,16.82
2022-09-03T02:54:39.820Z,16.82
2022-09-03T02:57:10.644Z,16.82
2022-09-03T02:59:41.793Z,16.83
2022-09-03T03:02:14.971Z,16.84
2022-09-03T03:04:45.217Z,16.83
2022-09-03T03:07:15.477Z,16.83
2022-09-03T03:09:45.908Z,16.85
2022-09-03T03:12:17.493Z,16.83
2022-09-03T03:14:47.670Z,16.84
2022-09-03T03:17:20.460Z,16.81
2022-09-03T03:19:50.601Z,16.85
2022-09-03T03:22:20.733Z,16.84
2022-09-03T03:24:51.319Z,16.85
2022-09-03T03:27:21.843Z,16.85
2022-09-03T03:29:52.441Z,16.86
2022-09-03T03:32:25.214Z,16.87
2022-09-03T03:34:55.462Z,16.88
2022-09-03T03:37:25.628Z,16.86
2022-09-03T03:39:55.909Z,16.86
2022-09-03T03:42:26.199Z,16.86
2022-09-03T03:44:56.357Z,16.85
2022-09-03T03:47:29.128Z,16.87
2022-09-03T03:49:59.272Z,16.86
2022-09-03T03:52:30.692Z,16.87
2022-09-03T03:55:02.030Z,16.86
2022-09-03T03:57:34.809Z,16.85
2022-09-03T04:00:05.381Z,16.84
2022-09-03T04:02:39.617Z,16.80
2022-09-03T04:05:10.615Z,16.79
2022-09-03T04:07:41.828Z,16.75
2022-09-03T04:10:13.062Z,16.74
2022-09-03T04:12:43.568Z,16.72
2022-09-03T04:15:14.386Z,16.71
2022-09-03T04:17:47.272Z,16.70
2022-09-03T04:20:17.636Z,16.68
2022-09-03T04:22:51.821Z,16.68
2022-09-03T04:25:22.169Z,16.65
2022-09-03T04:27:54.469Z,16.64
2022-09-03T04:30:24.841Z,16.61
2022-09-03T04:32:57.590Z,16.58
2022-09-03T04:35:33.860Z,16.53
2022-09-03T04:38:06.194Z,16.49
2022-09-03T04:40:36.974Z,16.45
2022-09-03T04:43:07.494Z,16.41
2022-09-03T04:45:37.743Z,16.39
2022-09-03T04:48:12.163Z,16.36
2022-09-03T04:50:42.355Z,16.33
2022-09-03T04:53:12.595Z,16.32
2022-09-03T04:55:43.711Z,16.32
2022-09-03T04:58:13.923Z,16.33
2022-09-03T05:00:44.195Z,16.36
2022-09-03T05:03:17.960Z,16.39
2022-09-03T05:05:55.590Z,16.47
2022-09-03T05:08:28.668Z,16.52
2022-09-03T05:11:03.001Z,16.62
2022-09-03T05:13:33.772Z,16.76
2022-09-03T05:16:04.652Z,16.74
2022-09-03T05:18:38.553Z,16.79
2022-09-03T05:21:10.722Z,16.99
2022-09-03T05:23:42.732Z,17.47
2022-09-03T05:26:17.367Z,17.92
2022-09-03T05:28:48.581Z,18.38
2022-09-03T05:31:21.661Z,18.76
2022-09-03T05:33:57.901Z,19.24
2022-09-03T05:36:29.884Z,19.41
2022-09-03T05:39:01.936Z,19.52
2022-09-03T05:41:33.708Z,19.82
2022-09-03T05:44:04.298Z,19.93
2022-09-03T05:46:37.141Z,20.19
2022-09-03T05:49:11.806Z,20.35
2022-09-03T05:51:42.782Z,20.56
2022-09-03T05:54:13.519Z,20.87
2022-09-03T05:56:44.010Z,21.00
2022-09-03T05:59:14.284Z,21.34
2022-09-03T06:01:50.955Z,21.25
2022-09-03T06:04:25.160Z,21.64
2022-09-03T06:06:55.308Z,22.16
2022-09-03T06:09:25.840Z,22.54
2022-09-03T06:11:57.499Z,22.70
2022-09-03T06:14:30.043Z,22.80
2022-09-03T06:17:00.414Z,22.55
2022-09-03T06:19:33.294Z,23.07
2022-09-03T06:22:03.551Z,23.60
2022-09-03T06:24:33.791Z,23.86
2022-09-03T06:27:04.726Z,24.23
2022-09-03T06:29:35.764Z,24.80
2022-09-03T06:32:06.819Z,25.13
2022-09-03T06:34:39.661Z,25.02
2022-09-03T06:37:09.952Z,25.18
2022-09-03T06:39:40.240Z,25.09
2022-09-03T06:42:11.059Z,24.99
2022-09-03T06:44:41.995Z,24.52
2022-09-03T06:47:12.192Z,24.57
2022-09-03T06:49:44.991Z,24.69
2022-09-03T06:52:15.208Z,24.71
2022-09-03T06:54:46.114Z,24.74
2022-09-03T06:57:16.623Z,25.14
2022-09-03T06:59:47.268Z,24.80
2022-09-03T07:02:19.623Z,24.82
2022-09-03T07:04:52.888Z,25.60
2022-09-03T07:07:24.486Z,25.69
2022-09-03T07:09:54.626Z,25.83
2022-09-03T07:12:25.378Z,25.30
2022-09-03T07:14:55.479Z,25.56
2022-09-03T07:17:25.738Z,26.02
2022-09-03T07:19:58.516Z,26.49
2022-09-03T07:22:31.306Z,26.85
2022-09-03T07:25:02.628Z,27.32
2022-09-03T07:27:33.202Z,27.36
2022-09-03T07:30:03.794Z,26.91
2022-09-03T07:32:34.083Z,26.33
2022-09-03T07:35:07.328Z,26.59
2022-09-03T07:37:38.640Z,26.91
2022-09-03T07:40:10.134Z,26.93
2022-09-03T07:42:41.216Z,26.95
2022-09-03T07:45:13.561Z,26.83
2022-09-03T07:47:50.799Z,27.20
2022-09-03T07:50:23.958Z,26.74
2022-09-03T07:53:00.179Z,26.10
2022-09-03T07:55:30.445Z,26.14
2022-09-03T07:58:00.839Z,25.91
2022-09-03T08:00:34.120Z,26.24
2022-09-03T08:03:08.496Z,26.13
2022-09-03T08:05:41.389Z,26.31
2022-09-03T08:08:15.522Z,26.57
2022-09-03T08:10:47.002Z,26.42
2022-09-03T08:13:19.963Z,27.04
2022-09-03T08:15:59.666Z,26.95
2022-09-03T08:18:37.911Z,27.34
2022-09-03T08:21:15.966Z,27.39
2022-09-03T08:23:48.496Z,27.65
2022-09-03T08:26:24.823Z,27.95
2022-09-03T08:28:56.194Z,27.27
2022-09-03T08:31:28.431Z,27.20
2022-09-03T08:34:00.630Z,27.15
2022-09-03T08:36:34.642Z,27.37
2022-09-03T08:39:10.266Z,27.70
2022-09-03T08:42:00.731Z,28.04
2022-09-03T08:44:33.663Z,27.84
2022-09-03T08:47:11.053Z,27.68
2022-09-03T08:49:48.727Z,27.62
2022-09-03T08:52:29.620Z,27.36
2022-09-03T08:55:06.088Z,27.37
2022-09-03T08:57:46.057Z,26.45
2022-09-03T09:00:17.140Z,27.00
2022-09-03T09:03:01.299Z,26.89
2022-09-03T09:05:44.342Z,27.08
2022-09-03T09:08:27.388Z,27.02
2022-09-03T09:11:06.397Z,27.07
2022-09-03T09:13:45.800Z,27.28
2022-09-03T09:16:22.172Z,27.37
2022-09-03T09:19:13.828Z,27.15
2022-09-03T09:21:49.129Z,27.44
2022-09-03T09:24:26.983Z,27.72
2022-09-03T09:27:01.530Z,27.60
2022-09-03T09:29:36.830Z,27.44
2022-09-03T09:32:13.291Z,27.39
2022-09-03T09:34:49.878Z,27.52
2022-09-03T09:37:22.275Z,27.35
2022-09-03T09:40:03.830Z,27.19
2022-09-03T09:42:39.468Z,27.14
2022-09-03T09:45:13.272Z,27.45
2022-09-03T09:47:44.441Z,27.61
2022-09-03T09:50:25.006Z,27.42
2022-09-03T09:53:04.389Z,27.53
2022-09-03T09:55:39.237Z,27.56
2022-09-03T09:58:14.520Z,27.71
2022-09-03T10:00:45.010Z,27.82
2022-09-03T10:03:15.520Z,27.57
2022-09-03T10:06:27.686Z,27.66
2022-09-03T10:09:09.933Z,27.69
2022-09-03T10:11:47.236Z,27.13
2022-09-03T10:14:26.222Z,27.44
2022-09-03T10:17:04.185Z,27.56
2022-09-03T10:19:43.525Z,27.12
2022-09-03T10:22:20.879Z,27.23
2022-09-03T10:25:00.977Z,27.40
2022-09-03T10:27:33.818Z,27.65
2022-09-03T10:30:04.099Z,27.66
2022-09-03T10:32:48.284Z,28.07
2022-09-03T10:35:28.393Z,28.42
2022-09-03T10:38:08.319Z,28.53
2022-09-03T10:40:43.607Z,28.34
2022-09-03T10:43:42.556Z,28.35
2022-09-03T10:46:23.436Z,27.52
2022-09-03T10:49:16.900Z,27.56
2022-09-03T10:51:57.370Z,27.40
2022-09-03T10:54:41.134Z,27.51
2022-09-03T10:57:22.027Z,27.65
2022-09-03T11:00:08.721Z,27.83
2022-09-03T11:03:02.310Z,27.99
2022-09-03T11:05:37.270Z,28.40
2022-09-03T11:08:13.502Z,28.81
2022-09-03T11:10:50.283Z,28.71
2022-09-03T11:13:25.466Z,28.89
2022-09-03T11:16:02.081Z,29.13
2022-09-03T11:18:38.744Z,29.19
2022-09-03T11:21:13.372Z,29.12
2022-09-03T11:24:09.632Z,28.94
2022-09-03T11:26:41.245Z,29.38
2022-09-03T11:29:19.284Z,28.83
2022-09-03T11:31:58.888Z,28.89
2022-09-03T11:34:37.235Z,28.37
2022-09-03T11:37:23.105Z,28.07
2022-09-03T11:39:59.966Z,28.25
2022-09-03T11:42:38.165Z,28.05
2022-09-03T11:45:26.605Z,28.15
2022-09-03T11:47:59.595Z,28.23
2022-09-03T11:50:32.152Z,28.05
2022-09-03T11:53:12.414Z,27.90
2022-09-03T11:55:59.403Z,28.49
2022-09-03T11:58:34.858Z,29.20
2022-09-03T12:01:10.516Z,29.52
2022-09-03T12:03:54.295Z,29.33
2022-09-03T12:06:40.503Z,28.84
2022-09-03T12:09:33.587Z,29.06
2022-09-03T12:12:17.259Z,28.88
2022-09-03T12:14:52.409Z,28.73
2022-09-03T12:17:32.683Z,28.60
2022-09-03T12:20:06.022Z,28.73
2022-09-03T12:22:41.536Z,28.67
2022-09-03T12:25:13.382Z,28.62
2022-09-03T12:27:47.076Z,28.65
2022-09-03T12:30:20.631Z,28.57
2022-09-03T12:32:51.533Z,28.43
2022-09-03T12:38:27.170Z,28.08
2022-09-03T12:43:55.040Z,28.08
2022-09-03T12:46:34.606Z,27.80
2022-09-03T12:52:09.052Z,27.03
2022-09-03T12:54:50.203Z,26.37
2022-09-03T12:57:25.657Z,26.76
2022-09-03T13:00:02.186Z,26.43
2022-09-03T13:02:40.264Z,26.29
2022-09-03T13:05:17.441Z,26.03
2022-09-03T13:07:55.890Z,26.17
2022-09-03T13:10:31.754Z,26.12
2022-09-03T13:13:03.979Z,25.73
2022-09-03T13:15:34.618Z,25.85
2022-09-03T13:18:27.790Z,25.85
2022-09-03T13:21:12.938Z,25.89
2022-09-03T13:24:12.280Z,25.91
2022-09-03T13:26:52.473Z,26.04
2022-09-03T13:29:39.790Z,26.04
2022-09-03T13:32:19.909Z,25.94
2022-09-03T13:34:56.551Z,25.76
2022-09-03T13:37:32.011Z,25.82
2022-09-03T13:40:17.472Z,25.80
2022-09-03T13:42:53.520Z,25.82
2022-09-03T13:45:32.938Z,25.67
2022-09-03T13:48:23.650Z,25.85
2022-09-03T13:51:02.276Z,26.02
2022-09-03T13:53:44.799Z,26.31
2022-09-03T13:56:29.211Z,26.54
2022-09-03T13:59:07.477Z,26.69
2022-09-03T14:02:05.336Z,26.93
2022-09-03T14:04:47.924Z,26.87
2022-09-03T14:07:26.269Z,26.74
2022-09-03T14:10:04.380Z,26.52
2022-09-03T14:12:46.960Z,26.39
2022-09-03T14:15:25.929Z,26.29
2022-09-03T14:18:03.035Z,26.25
2022-09-03T14:20:40.928Z,26.18
2022-09-03T14:23:25.730Z,26.25
2022-09-03T14:25:57.443Z,26.17
2022-09-03T14:28:38.369Z,26.18
2022-09-03T14:31:21.325Z,26.24
2022-09-03T14:34:03.700Z,26.19
2022-09-03T14:36:43.584Z,26.21
2022-09-03T14:39:32.827Z,26.17
2022-09-03T14:42:47.793Z,26.16
2022-09-03T14:46:05.911Z,26.25
2022-09-03T14:48:52.792Z,26.10
2022-09-03T14:51:38.361Z,26.07
2022-09-03T14:54:30.985Z,26.07
2022-09-03T14:57:12.905Z,26.06
2022-09-03T15:00:08.307Z,26.04
2022-09-03T15:02:55.812Z,26.02
2022-09-03T15:05:39.715Z,25.96
2022-09-03T15:08:15.922Z,25.82
2022-09-03T15:10:55.911Z,25.82
2022-09-03T15:13:30.246Z,25.68
2022-09-03T15:16:21.137Z,25.67
2022-09-03T15:19:09.409Z,25.62
2022-09-03T15:22:01.580Z,25.57
2022-09-03T15:24:41.291Z,25.42
2022-09-03T15:27:32.543Z,25.44
2022-09-03T15:30:10.047Z,25.28
2022-09-03T15:32:55.668Z,25.25
2022-09-03T15:35:48.707Z,25.16
2022-09-03T15:38:41.446Z,25.05
2022-09-03T15:41:20.851Z,25.05
2022-09-03T15:43:53.867Z,24.94
2022-09-03T15:46:41.432Z,25.05
2022-09-03T15:49:21.625Z,24.91
2022-09-03T15:52:17.426Z,24.86
2022-09-03T15:55:04.047Z,24.86
2022-09-03T15:57:42.518Z,24.82
2022-09-03T16:00:16.204Z,24.84
2022-09-03T16:02:59.320Z,24.78
2022-09-03T16:05:42.775Z,24.69
2022-09-03T16:08:22.521Z,24.69
2022-09-03T16:11:01.895Z,24.47
2022-09-03T16:13:43.596Z,24.53
2022-09-03T16:16:22.914Z,24.52
2022-09-03T16:19:03.544Z,24.53
2022-09-03T16:21:40.199Z,24.48
2022-09-03T16:24:20.408Z,24.49
2022-09-03T16:27:00.326Z,24.44
2022-09-03T16:29:32.822Z,24.35
2022-09-03T16:32:16.651Z,24.30
2022-09-03T16:34:51.974Z,24.27
2022-09-03T16:37:30.315Z,24.28
2022-09-03T16:40:15.922Z,24.17
2022-09-03T16:42:56.078Z,24.15
2022-09-03T16:45:34.503Z,24.12
2022-09-03T16:48:20.353Z,24.03
2022-09-03T16:51:09.880Z,23.88
2022-09-03T16:54:03.364Z,23.78
2022-09-03T16:56:51.262Z,23.76
2022-09-03T16:59:54.455Z,23.72
2022-09-03T17:02:48.129Z,23.63
2022-09-03T17:05:33.748Z,23.58
2022-09-03T17:08:16.026Z,23.43
2022-09-03T17:10:52.049Z,23.39
2022-09-03T17:13:49.278Z,23.27
2022-09-03T17:16:38.452Z,23.17
2022-09-03T17:19:14.197Z,23.10
2022-09-03T17:21:53.687Z,22.94
2022-09-03T17:24:37.920Z,22.89
2022-09-03T17:27:28.598Z,22.77
2022-09-03T17:30:09.358Z,22.70
2022-09-03T17:33:07.509Z,22.56
2022-09-03T17:35:44.120Z,22.55
2022-09-03T17:38:29.384Z,22.42
2022-09-03T17:41:11.177Z,22.36
2022-09-03T17:43:54.175Z,22.34
2022-09-03T17:46:35.755Z,22.30
2022-09-03T17:49:11.161Z,22.24
2022-09-03T17:51:48.244Z,22.18
2022-09-03T17:54:28.810Z,22.13
2022-09-03T17:57:09.009Z,22.11
2022-09-03T17:59:47.097Z,22.10
2022-09-03T18:02:32.026Z,22.13
2022-09-03T18:05:13.568Z,22.06
2022-09-03T18:07:50.932Z,22.09
2022-09-03T18:10:30.396Z,22.09
2022-09-03T18:13:09.753Z,22.07
2022-09-03T18:15:49.641Z,22.09
2022-09-03T18:18:29.031Z,22.14
2022-09-03T18:21:29.031Z,22.09
2022-09-03T18:24:19.791Z,22.10
2022-09-03T18:27:11.525Z,22.08
2022-09-03T18:30:01.217Z,22.08
2022-09-03T18:32:48.040Z,22.01
2022-09-03T18:35:31.350Z,21.99
2022-09-03T18:38:18.966Z,22.00
2022-09-03T18:41:08.697Z,21.89
2022-09-03T18:44:01.337Z,21.91
2022-09-03T18:50:07.266Z,21.90
2022-09-03T18:52:58.814Z,21.78
2022-09-03T18:55:57.035Z,21.78
2022-09-03T18:58:48.970Z,21.84
2022-09-03T19:01:43.067Z,21.79
2022-09-03T19:04:35.374Z,21.74
2022-09-03T19:07:23.922Z,21.71
2022-09-03T19:10:13.417Z,21.60
2022-09-03T19:13:15.223Z,21.61
2022-09-03T19:16:07.774Z,21.55
2022-09-03T19:19:24.147Z,21.50
2022-09-03T19:22:11.629Z,21.45
2022-09-03T19:24:54.267Z,21.44
2022-09-03T19:27:59.586Z,21.43
2022-09-03T19:30:50.828Z,21.31
2022-09-03T19:33:41.973Z,21.31
2022-09-03T19:36:31.497Z,21.32
2022-09-03T19:39:28.205Z,21.29
2022-09-03T19:42:19.275Z,21.27
2022-09-03T19:45:14.829Z,21.28
2022-09-03T19:48:13.738Z,21.28
2022-09-03T19:51:02.871Z,21.21
2022-09-03T19:53:47.711Z,21.14
2022-09-03T19:56:38.849Z,21.05
2022-09-03T19:59:27.803Z,21.04
2022-09-03T20:02:10.454Z,20.94
2022-09-03T20:05:01.996Z,21.01
2022-09-03T20:07:45.148Z,20.96
2022-09-03T20:10:22.555Z,20.91
2022-09-03T20:12:58.977Z,20.77
2022-09-03T20:15:45.729Z,20.60
2022-09-03T20:18:24.865Z,20.70
2022-09-03T20:21:09.911Z,20.63
2022-09-03T20:23:50.798Z,20.74
2022-09-03T20:26:30.867Z,20.59
2022-09-03T20:29:26.539Z,20.72
2022-09-03T20:32:05.885Z,20.58
2022-09-03T20:34:45.442Z,20.60
2022-09-03T20:37:29.033Z,20.58
2022-09-03T20:40:28.725Z,20.63
2022-09-03T20:43:43.612Z,20.56
2022-09-03T20:46:29.160Z,20.61
2022-09-03T20:49:07.987Z,20.57
2022-09-03T20:51:46.256Z,20.53
2022-09-03T20:54:28.721Z,20.53
2022-09-03T20:57:24.198Z,20.33
2022-09-03T21:00:07.330Z,20.44
2022-09-03T21:02:58.486Z,20.33
2022-09-03T21:05:32.656Z,20.47
2022-09-03T21:08:11.438Z,20.38
2022-09-03T21:10:51.015Z,20.45
2022-09-03T21:13:38.576Z,20.43
2022-09-03T21:16:23.036Z,20.45
2022-09-03T21:19:02.019Z,20.28
2022-09-03T21:21:43.240Z,20.24
2022-09-03T21:24:19.018Z,20.37
2022-09-03T21:26:57.259Z,20.36
2022-09-03T21:29:29.648Z,20.37
2022-09-03T21:32:05.506Z,20.22
2022-09-03T21:34:42.458Z,20.19
2022-09-03T21:37:15.706Z,20.23
2022-09-03T21:39:49.967Z,20.08
2022-09-03T21:42:30.033Z,20.10
2022-09-03T21:45:07.786Z,19.88
2022-09-03T21:47:44.854Z,19.90
2022-09-03T21:50:21.798Z,19.84
2022-09-03T21:52:57.232Z,19.76
2022-09-03T21:55:37.784Z,19.69
2022-09-03T21:58:27.450Z,19.72
2022-09-03T22:01:02.622Z,19.67
2022-09-03T22:03:34.114Z,19.58
2022-09-03T22:06:14.229Z,19.70
2022-09-03T22:08:53.982Z,19.63
2022-09-03T22:11:33.306Z,19.73
2022-09-03T22:14:12.922Z,19.74
2022-09-03T22:16:50.469Z,19.67
2022-09-03T22:19:21.109Z,19.63
2022-09-03T22:22:00.323Z,19.61
2022-09-03T22:24:43.086Z,19.63
2022-09-03T22:27:22.576Z,19.50
2022-09-03T22:30:06.017Z,19.55
2022-09-03T22:32:51.946Z,19.58
2022-09-03T22:35:48.475Z,19.54
2022-09-03T22:38:46.651Z,19.61
2022-09-03T22:41:37.616Z,19.62
2022-09-03T22:44:16.893Z,19.58
2022-09-03T22:47:02.277Z,19.62
2022-09-03T22:49:41.097Z,19.60
2022-09-03T22:52:31.998Z,19.58
2022-09-03T22:55:23.352Z,19.58
2022-09-03T22:58:04.688Z,19.56
2022-09-03T23:00:43.123Z,19.56
2022-09-03T23:03:22.742Z,19.55
2022-09-03T23:05:59.506Z,19.49
2022-09-03T23:08:37.668Z,19.44
2022-09-03T23:11:25.886Z,19.38
2022-09-03T23:14:02.132Z,19.28
2022-09-03T23:16:39.762Z,19.17
2022-09-03T23:21:57.048Z,19.12
2022-09-03T23:24:34.786Z,19.09
2022-09-03T23:27:10.487Z,19.05
2022-09-03T23:29:45.965Z,19.00
2022-09-03T23:32:18.469Z,18.97
2022-09-03T23:34:51.307Z,18.91
2022-09-03T23:37:42.153Z,18.86
2022-09-03T23:40:31.722Z,18.78
2022-09-03T23:43:50.466Z,18.72
2022-09-03T23:46:23.994Z,18.56
2022-09-03T23:49:12.043Z,18.52
2022-09-03T23:51:58.873Z,18.47
2022-09-03T23:54:40.655Z,18.41
2022-09-03T23:57:27.103Z,18.33
